sensor_id;sensor_type;location;lat;lon;timestamp;pressure;altitude;pressure_sealevel;temperature
67758;BMP180;54562;47.620;18.786;2023-02-28T00:00:14;99449.60;;;-0.70
67758;BMP180;54562;47.620;18.786;2023-02-28T00:03:22;99451.60;;;-0.70
67758;BMP180;54562;47.620;18.786;2023-02-28T00:06:30;99457.00;;;-0.70
67758;BMP180;54562;47.620;18.786;2023-02-28T00:09:42;99449.80;;;-0.70
67758;BMP180;54562;47.620;18.786;2023-02-28T00:12:59;99446.00;;;-0.70
67758;BMP180;54562;47.620;18.786;2023-02-28T00:16:10;99444.80;;;-0.72
67758;BMP180;54562;47.620;18.786;2023-02-28T00:19:19;99451.40;;;-0.70
67758;BMP180;54562;47.620;18.786;2023-02-28T00:22:28;99458.40;;;-0.80
67758;BMP180;54562;47.620;18.786;2023-02-28T00:25:36;99454.80;;;-0.80
67758;BMP180;54562;47.620;18.786;2023-02-28T00:28:44;99459.40;;;-0.80
67758;BMP180;54562;47.620;18.786;2023-02-28T00:31:53;99460.60;;;-0.80
67758;BMP180;54562;47.620;18.786;2023-02-28T00:35:01;99466.20;;;-0.80
67758;BMP180;54562;47.620;18.786;2023-02-28T00:38:09;99464.60;;;-0.78
67758;BMP180;54562;47.620;18.786;2023-02-28T00:41:17;99467.20;;;-0.70
67758;BMP180;54562;47.620;18.786;2023-02-28T00:44:26;99471.00;;;-0.70
67758;BMP180;54562;47.620;18.786;2023-02-28T00:47:34;99470.00;;;-0.70
67758;BMP180;54562;47.620;18.786;2023-02-28T00:50:42;99471.20;;;-0.62
67758;BMP180;54562;47.620;18.786;2023-02-28T00:53:50;99473.60;;;-0.60
67758;BMP180;54562;47.620;18.786;2023-02-28T00:56:58;99469.80;;;-0.60
67758;BMP180;54562;47.620;18.786;2023-02-28T01:00:10;99479.40;;;-0.58
67758;BMP180;54562;47.620;18.786;2023-02-28T01:03:21;99473.20;;;-0.52
67758;BMP180;54562;47.620;18.786;2023-02-28T01:06:27;99471.20;;;-0.50
67758;BMP180;54562;47.620;18.786;2023-02-28T01:09:37;99468.80;;;-0.50
67758;BMP180;54562;47.620;18.786;2023-02-28T01:12:45;99479.80;;;-0.50
67758;BMP180;54562;47.620;18.786;2023-02-28T01:15:56;99478.80;;;-0.40
67758;BMP180;54562;47.620;18.786;2023-02-28T01:19:05;99482.40;;;-0.40
67758;BMP180;54562;47.620;18.786;2023-02-28T01:22:12;99484.80;;;-0.40
67758;BMP180;54562;47.620;18.786;2023-02-28T01:25:20;99486.00;;;-0.40
67758;BMP180;54562;47.620;18.786;2023-02-28T01:28:29;99484.80;;;-0.38
67758;BMP180;54562;47.620;18.786;2023-02-28T01:31:37;99484.40;;;-0.30
67758;BMP180;54562;47.620;18.786;2023-02-28T01:34:45;99480.00;;;-0.30
67758;BMP180;54562;47.620;18.786;2023-02-28T01:37:53;99480.00;;;-0.30
67758;BMP180;54562;47.620;18.786;2023-02-28T01:41:16;99477.20;;;-0.30
67758;BMP180;54562;47.620;18.786;2023-02-28T01:45:04;99473.60;;;-0.30
67758;BMP180;54562;47.620;18.786;2023-02-28T01:48:14;99478.40;;;-0.30
67758;BMP180;54562;47.620;18.786;2023-02-28T01:51:27;99471.80;;;-0.30
67758;BMP180;54562;47.620;18.786;2023-02-28T01:54:37;99476.00;;;-0.30
67758;BMP180;54562;47.620;18.786;2023-02-28T01:57:50;99474.80;;;-0.30
67758;BMP180;54562;47.620;18.786;2023-02-28T02:00:59;99473.60;;;-0.30
67758;BMP180;54562;47.620;18.786;2023-02-28T02:04:09;99477.60;;;-0.30
67758;BMP180;54562;47.620;18.786;2023-02-28T02:07:17;99475.20;;;-0.30
67758;BMP180;54562;47.620;18.786;2023-02-28T02:10:32;99479.80;;;-0.30
67758;BMP180;54562;47.620;18.786;2023-02-28T02:14:09;99478.60;;;-0.30
67758;BMP180;54562;47.620;18.786;2023-02-28T02:17:28;99478.20;;;-0.30
67758;BMP180;54562;47.620;18.786;2023-02-28T02:21:23;99475.60;;;-0.30
67758;BMP180;54562;47.620;18.786;2023-02-28T02:25:02;99474.00;;;-0.40
67758;BMP180;54562;47.620;18.786;2023-02-28T02:33:15;99469.80;;;-0.40
67758;BMP180;54562;47.620;18.786;2023-02-28T02:36:33;99461.20;;;-0.40
67758;BMP180;54562;47.620;18.786;2023-02-28T02:39:51;99466.40;;;-0.40
67758;BMP180;54562;47.620;18.786;2023-02-28T02:43:07;99467.80;;;-0.40
67758;BMP180;54562;47.620;18.786;2023-02-28T02:46:23;99468.00;;;-0.40
67758;BMP180;54562;47.620;18.786;2023-02-28T02:49:38;99469.40;;;-0.40
67758;BMP180;54562;47.620;18.786;2023-02-28T02:52:51;99469.20;;;-0.40
67758;BMP180;54562;47.620;18.786;2023-02-28T02:56:03;99471.20;;;-0.40
67758;BMP180;54562;47.620;18.786;2023-02-28T02:59:16;99470.20;;;-0.38
67758;BMP180;54562;47.620;18.786;2023-02-28T03:02:30;99472.20;;;-0.40
67758;BMP180;54562;47.620;18.786;2023-02-28T03:05:47;99473.60;;;-0.40
67758;BMP180;54562;47.620;18.786;2023-02-28T03:08:56;99473.20;;;-0.40
67758;BMP180;54562;47.620;18.786;2023-02-28T03:12:08;99472.60;;;-0.40
67758;BMP180;54562;47.620;18.786;2023-02-28T03:15:26;99475.40;;;-0.40
67758;BMP180;54562;47.620;18.786;2023-02-28T03:18:43;99480.60;;;-0.40
67758;BMP180;54562;47.620;18.786;2023-02-28T03:22:14;99487.60;;;-0.40
67758;BMP180;54562;47.620;18.786;2023-02-28T03:25:29;99490.20;;;-0.40
67758;BMP180;54562;47.620;18.786;2023-02-28T03:28:47;99490.20;;;-0.40
67758;BMP180;54562;47.620;18.786;2023-02-28T03:32:03;99489.60;;;-0.40
67758;BMP180;54562;47.620;18.786;2023-02-28T03:35:18;99487.40;;;-0.40
67758;BMP180;54562;47.620;18.786;2023-02-28T03:38:34;99487.40;;;-0.40
67758;BMP180;54562;47.620;18.786;2023-02-28T03:41:47;99487.40;;;-0.40
67758;BMP180;54562;47.620;18.786;2023-02-28T03:45:03;99490.40;;;-0.40
67758;BMP180;54562;47.620;18.786;2023-02-28T03:48:19;99497.20;;;-0.40
67758;BMP180;54562;47.620;18.786;2023-02-28T03:51:32;99489.80;;;-0.40
67758;BMP180;54562;47.620;18.786;2023-02-28T03:54:46;99492.00;;;-0.40
67758;BMP180;54562;47.620;18.786;2023-02-28T03:58:04;99491.40;;;-0.40
67758;BMP180;54562;47.620;18.786;2023-02-28T04:01:18;99484.20;;;-0.44
67758;BMP180;54562;47.620;18.786;2023-02-28T04:04:27;99487.00;;;-0.50
67758;BMP180;54562;47.620;18.786;2023-02-28T04:07:36;99483.60;;;-0.50
67758;BMP180;54562;47.620;18.786;2023-02-28T04:10:47;99485.40;;;-0.50
67758;BMP180;54562;47.620;18.786;2023-02-28T04:13:57;99486.00;;;-0.50
67758;BMP180;54562;47.620;18.786;2023-02-28T04:17:05;99489.20;;;-0.50
67758;BMP180;54562;47.620;18.786;2023-02-28T04:20:15;99487.00;;;-0.50
67758;BMP180;54562;47.620;18.786;2023-02-28T04:23:22;99487.40;;;-0.48
67758;BMP180;54562;47.620;18.786;2023-02-28T04:26:33;99485.00;;;-0.50
67758;BMP180;54562;47.620;18.786;2023-02-28T04:29:41;99482.00;;;-0.50
67758;BMP180;54562;47.620;18.786;2023-02-28T04:32:53;99481.60;;;-0.42
67758;BMP180;54562;47.620;18.786;2023-02-28T04:36:07;99478.00;;;-0.46
67758;BMP180;54562;47.620;18.786;2023-02-28T04:39:16;99480.00;;;-0.42
67758;BMP180;54562;47.620;18.786;2023-02-28T04:42:24;99479.40;;;-0.40
67758;BMP180;54562;47.620;18.786;2023-02-28T04:45:32;99475.20;;;-0.40
67758;BMP180;54562;47.620;18.786;2023-02-28T04:48:42;99474.60;;;-0.40
67758;BMP180;54562;47.620;18.786;2023-02-28T04:51:50;99473.40;;;-0.40
67758;BMP180;54562;47.620;18.786;2023-02-28T04:54:59;99470.40;;;-0.40
67758;BMP180;54562;47.620;18.786;2023-02-28T04:58:07;99471.80;;;-0.40
67758;BMP180;54562;47.620;18.786;2023-02-28T05:01:25;99477.00;;;-0.40
67758;BMP180;54562;47.620;18.786;2023-02-28T05:04:34;99480.20;;;-0.40
67758;BMP180;54562;47.620;18.786;2023-02-28T05:07:42;99481.20;;;-0.40
67758;BMP180;54562;47.620;18.786;2023-02-28T05:10:50;99481.80;;;-0.40
67758;BMP180;54562;47.620;18.786;2023-02-28T05:13:57;99481.00;;;-0.40
67758;BMP180;54562;47.620;18.786;2023-02-28T05:17:05;99489.40;;;-0.40
67758;BMP180;54562;47.620;18.786;2023-02-28T05:20:15;99491.40;;;-0.40
67758;BMP180;54562;47.620;18.786;2023-02-28T05:23:24;99489.60;;;-0.40
67758;BMP180;54562;47.620;18.786;2023-02-28T05:26:36;99493.80;;;-0.40
67758;BMP180;54562;47.620;18.786;2023-02-28T05:29:44;99489.00;;;-0.40
67758;BMP180;54562;47.620;18.786;2023-02-28T05:32:55;99490.60;;;-0.40
67758;BMP180;54562;47.620;18.786;2023-02-28T05:36:03;99497.20;;;-0.38
67758;BMP180;54562;47.620;18.786;2023-02-28T05:39:11;99503.60;;;-0.38
67758;BMP180;54562;47.620;18.786;2023-02-28T05:42:19;99511.00;;;-0.38
67758;BMP180;54562;47.620;18.786;2023-02-28T05:45:27;99512.80;;;-0.32
67758;BMP180;54562;47.620;18.786;2023-02-28T05:48:37;99517.00;;;-0.30
67758;BMP180;54562;47.620;18.786;2023-02-28T05:51:45;99517.40;;;-0.30
67758;BMP180;54562;47.620;18.786;2023-02-28T05:54:53;99520.80;;;-0.30
67758;BMP180;54562;47.620;18.786;2023-02-28T05:58:01;99516.40;;;-0.22
67758;BMP180;54562;47.620;18.786;2023-02-28T06:01:26;99524.00;;;-0.20
67758;BMP180;54562;47.620;18.786;2023-02-28T06:04:39;99526.60;;;-0.20
67758;BMP180;54562;47.620;18.786;2023-02-28T06:07:48;99526.00;;;-0.10
67758;BMP180;54562;47.620;18.786;2023-02-28T06:10:56;99528.00;;;-0.10
67758;BMP180;54562;47.620;18.786;2023-02-28T06:14:05;99539.00;;;-0.08
67758;BMP180;54562;47.620;18.786;2023-02-28T06:17:13;99533.60;;;0.00
67758;BMP180;54562;47.620;18.786;2023-02-28T06:20:21;99532.80;;;0.00
67758;BMP180;54562;47.620;18.786;2023-02-28T06:23:29;99531.80;;;0.10
67758;BMP180;54562;47.620;18.786;2023-02-28T06:26:37;99532.80;;;0.10
67758;BMP180;54562;47.620;18.786;2023-02-28T06:29:46;99538.00;;;0.20
67758;BMP180;54562;47.620;18.786;2023-02-28T06:32:54;99538.80;;;0.20
67758;BMP180;54562;47.620;18.786;2023-02-28T06:36:02;99544.80;;;0.30
67758;BMP180;54562;47.620;18.786;2023-02-28T06:39:11;99546.60;;;0.30
67758;BMP180;54562;47.620;18.786;2023-02-28T06:42:19;99552.20;;;0.30
67758;BMP180;54562;47.620;18.786;2023-02-28T06:45:28;99551.20;;;0.40
67758;BMP180;54562;47.620;18.786;2023-02-28T06:48:36;99549.40;;;0.40
67758;BMP180;54562;47.620;18.786;2023-02-28T06:51:46;99550.00;;;0.40
67758;BMP180;54562;47.620;18.786;2023-02-28T06:54:54;99550.40;;;0.50
67758;BMP180;54562;47.620;18.786;2023-02-28T06:58:06;99554.60;;;0.50
67758;BMP180;54562;47.620;18.786;2023-02-28T07:01:21;99550.80;;;0.50
67758;BMP180;54562;47.620;18.786;2023-02-28T07:04:31;99547.60;;;0.54
67758;BMP180;54562;47.620;18.786;2023-02-28T07:07:39;99548.00;;;0.60
67758;BMP180;54562;47.620;18.786;2023-02-28T07:10:53;99553.40;;;0.60
67758;BMP180;54562;47.620;18.786;2023-02-28T07:14:01;99559.20;;;0.70
67758;BMP180;54562;47.620;18.786;2023-02-28T07:17:10;99567.60;;;0.80
67758;BMP180;54562;47.620;18.786;2023-02-28T07:20:19;99566.40;;;0.82
67758;BMP180;54562;47.620;18.786;2023-02-28T07:23:27;99571.80;;;0.98
67758;BMP180;54562;47.620;18.786;2023-02-28T07:26:35;99569.80;;;1.10
67758;BMP180;54562;47.620;18.786;2023-02-28T07:29:43;99572.40;;;1.20
67758;BMP180;54562;47.620;18.786;2023-02-28T07:32:50;99574.20;;;1.30
67758;BMP180;54562;47.620;18.786;2023-02-28T07:36:07;99570.80;;;1.40
67758;BMP180;54562;47.620;18.786;2023-02-28T07:39:15;99574.60;;;1.46
67758;BMP180;54562;47.620;18.786;2023-02-28T07:42:23;99572.60;;;1.50
67758;BMP180;54562;47.620;18.786;2023-02-28T07:45:32;99566.00;;;1.50
67758;BMP180;54562;47.620;18.786;2023-02-28T07:48:41;99572.40;;;1.60
67758;BMP180;54562;47.620;18.786;2023-02-28T07:51:50;99571.80;;;1.60
67758;BMP180;54562;47.620;18.786;2023-02-28T07:54:59;99571.40;;;1.70
67758;BMP180;54562;47.620;18.786;2023-02-28T07:58:07;99575.60;;;1.74
67758;BMP180;54562;47.620;18.786;2023-02-28T08:01:16;99577.00;;;1.80
67758;BMP180;54562;47.620;18.786;2023-02-28T08:04:24;99578.80;;;1.90
67758;BMP180;54562;47.620;18.786;2023-02-28T08:07:32;99580.00;;;2.00
67758;BMP180;54562;47.620;18.786;2023-02-28T08:10:40;99574.60;;;2.00
67758;BMP180;54562;47.620;18.786;2023-02-28T08:13:48;99579.80;;;2.20
67758;BMP180;54562;47.620;18.786;2023-02-28T08:16:57;99580.60;;;2.30
67758;BMP180;54562;47.620;18.786;2023-02-28T08:20:07;99577.00;;;2.30
67758;BMP180;54562;47.620;18.786;2023-02-28T08:23:16;99579.40;;;2.40
67758;BMP180;54562;47.620;18.786;2023-02-28T08:26:24;99581.60;;;2.40
67758;BMP180;54562;47.620;18.786;2023-02-28T08:29:32;99583.80;;;2.40
67758;BMP180;54562;47.620;18.786;2023-02-28T08:32:40;99584.60;;;2.58
67758;BMP180;54562;47.620;18.786;2023-02-28T08:35:48;99575.60;;;2.66
67758;BMP180;54562;47.620;18.786;2023-02-28T08:38:56;99579.20;;;2.80
67758;BMP180;54562;47.620;18.786;2023-02-28T08:42:05;99574.00;;;3.00
67758;BMP180;54562;47.620;18.786;2023-02-28T08:45:14;99568.40;;;3.10
67758;BMP180;54562;47.620;18.786;2023-02-28T08:48:23;99563.60;;;3.30
67758;BMP180;54562;47.620;18.786;2023-02-28T08:51:31;99568.00;;;3.40
67758;BMP180;54562;47.620;18.786;2023-02-28T08:54:39;99570.00;;;3.50
67758;BMP180;54562;47.620;18.786;2023-02-28T08:57:47;99563.60;;;3.60
67758;BMP180;54562;47.620;18.786;2023-02-28T09:00:55;99563.80;;;3.70
67758;BMP180;54562;47.620;18.786;2023-02-28T09:04:03;99559.00;;;3.90
67758;BMP180;54562;47.620;18.786;2023-02-28T09:07:15;99553.60;;;4.06
67758;BMP180;54562;47.620;18.786;2023-02-28T09:10:22;99560.20;;;4.20
67758;BMP180;54562;47.620;18.786;2023-02-28T09:13:31;99556.00;;;4.30
67758;BMP180;54562;47.620;18.786;2023-02-28T09:16:40;99556.60;;;4.40
67758;BMP180;54562;47.620;18.786;2023-02-28T09:19:50;99552.60;;;4.50
67758;BMP180;54562;47.620;18.786;2023-02-28T09:22:58;99552.20;;;4.60
67758;BMP180;54562;47.620;18.786;2023-02-28T09:26:07;99553.80;;;4.70
67758;BMP180;54562;47.620;18.786;2023-02-28T09:29:15;99562.20;;;4.90
67758;BMP180;54562;47.620;18.786;2023-02-28T09:32:24;99564.20;;;5.10
67758;BMP180;54562;47.620;18.786;2023-02-28T09:35:32;99561.20;;;5.30
67758;BMP180;54562;47.620;18.786;2023-02-28T09:38:40;99563.40;;;5.40
67758;BMP180;54562;47.620;18.786;2023-02-28T09:41:52;99557.00;;;5.50
67758;BMP180;54562;47.620;18.786;2023-02-28T09:45:10;99556.20;;;5.60
67758;BMP180;54562;47.620;18.786;2023-02-28T09:48:27;99565.20;;;5.70
67758;BMP180;54562;47.620;18.786;2023-02-28T09:51:46;99561.60;;;5.90
67758;BMP180;54562;47.620;18.786;2023-02-28T09:54:57;99560.20;;;6.02
67758;BMP180;54562;47.620;18.786;2023-02-28T09:58:18;99556.00;;;6.20
67758;BMP180;54562;47.620;18.786;2023-02-28T10:01:36;99557.40;;;6.30
67758;BMP180;54562;47.620;18.786;2023-02-28T10:04:53;99566.80;;;6.40
67758;BMP180;54562;47.620;18.786;2023-02-28T10:08:13;99565.00;;;6.52
67758;BMP180;54562;47.620;18.786;2023-02-28T10:11:21;99562.80;;;6.70
67758;BMP180;54562;47.620;18.786;2023-02-28T10:14:33;99561.80;;;6.80
67758;BMP180;54562;47.620;18.786;2023-02-28T10:17:45;99556.40;;;6.90
67758;BMP180;54562;47.620;18.786;2023-02-28T10:21:23;99551.20;;;7.00
67758;BMP180;54562;47.620;18.786;2023-02-28T10:24:37;99542.00;;;7.18
67758;BMP180;54562;47.620;18.786;2023-02-28T10:27:48;99544.20;;;7.10
67758;BMP180;54562;47.620;18.786;2023-02-28T10:30:59;99545.80;;;7.06
67758;BMP180;54562;47.620;18.786;2023-02-28T10:34:08;99535.60;;;7.00
67758;BMP180;54562;47.620;18.786;2023-02-28T10:37:20;99533.20;;;7.20
67758;BMP180;54562;47.620;18.786;2023-02-28T10:40:34;99533.60;;;7.40
67758;BMP180;54562;47.620;18.786;2023-02-28T10:43:44;99528.40;;;7.60
67758;BMP180;54562;47.620;18.786;2023-02-28T10:46:54;99523.60;;;7.70
67758;BMP180;54562;47.620;18.786;2023-02-28T10:50:03;99522.20;;;7.80
67758;BMP180;54562;47.620;18.786;2023-02-28T10:53:31;99523.20;;;8.00
67758;BMP180;54562;47.620;18.786;2023-02-28T10:57:25;99517.60;;;8.04
67758;BMP180;54562;47.620;18.786;2023-02-28T11:00:38;99511.60;;;8.20
67758;BMP180;54562;47.620;18.786;2023-02-28T11:03:47;99509.60;;;8.30
67758;BMP180;54562;47.620;18.786;2023-02-28T11:07:03;99502.80;;;8.30
67758;BMP180;54562;47.620;18.786;2023-02-28T11:10:23;99498.40;;;8.40
67758;BMP180;54562;47.620;18.786;2023-02-28T11:13:36;99502.20;;;8.30
67758;BMP180;54562;47.620;18.786;2023-02-28T11:16:45;99500.80;;;8.26
67758;BMP180;54562;47.620;18.786;2023-02-28T11:20:00;99502.60;;;8.20
67758;BMP180;54562;47.620;18.786;2023-02-28T11:23:15;99500.60;;;8.10
67758;BMP180;54562;47.620;18.786;2023-02-28T11:26:44;99504.20;;;8.20
67758;BMP180;54562;47.620;18.786;2023-02-28T11:29:54;99500.60;;;8.22
67758;BMP180;54562;47.620;18.786;2023-02-28T11:33:01;99497.80;;;8.42
67758;BMP180;54562;47.620;18.786;2023-02-28T11:36:31;99494.00;;;8.70
67758;BMP180;54562;47.620;18.786;2023-02-28T11:39:39;99490.20;;;8.80
67758;BMP180;54562;47.620;18.786;2023-02-28T11:43:01;99494.40;;;8.70
67758;BMP180;54562;47.620;18.786;2023-02-28T11:46:26;99494.20;;;8.50
67758;BMP180;54562;47.620;18.786;2023-02-28T11:49:47;99496.80;;;8.40
67758;BMP180;54562;47.620;18.786;2023-02-28T11:53:04;99492.60;;;8.58
67758;BMP180;54562;47.620;18.786;2023-02-28T11:56:21;99487.00;;;8.70
67758;BMP180;54562;47.620;18.786;2023-02-28T11:59:51;99485.20;;;8.90
67758;BMP180;54562;47.620;18.786;2023-02-28T12:03:14;99478.20;;;9.10
67758;BMP180;54562;47.620;18.786;2023-02-28T12:06:31;99471.80;;;9.20
67758;BMP180;54562;47.620;18.786;2023-02-28T12:09:57;99471.20;;;9.20
67758;BMP180;54562;47.620;18.786;2023-02-28T12:13:23;99471.00;;;9.34
67758;BMP180;54562;47.620;18.786;2023-02-28T12:16:49;99468.40;;;9.50
67758;BMP180;54562;47.620;18.786;2023-02-28T12:20:16;99467.00;;;9.70
67758;BMP180;54562;47.620;18.786;2023-02-28T12:23:51;99465.00;;;9.62
67758;BMP180;54562;47.620;18.786;2023-02-28T12:27:05;99457.20;;;9.70
67758;BMP180;54562;47.620;18.786;2023-02-28T12:30:21;99449.60;;;9.80
67758;BMP180;54562;47.620;18.786;2023-02-28T12:33:38;99446.20;;;9.90
67758;BMP180;54562;47.620;18.786;2023-02-28T12:36:51;99444.60;;;10.00
67758;BMP180;54562;47.620;18.786;2023-02-28T12:40:06;99442.40;;;9.96
67758;BMP180;54562;47.620;18.786;2023-02-28T12:43:20;99437.00;;;10.00
67758;BMP180;54562;47.620;18.786;2023-02-28T12:46:35;99439.60;;;10.10
67758;BMP180;54562;47.620;18.786;2023-02-28T12:49:51;99440.00;;;10.10
67758;BMP180;54562;47.620;18.786;2023-02-28T12:53:07;99439.00;;;9.80
67758;BMP180;54562;47.620;18.786;2023-02-28T12:56:22;99437.60;;;9.60
67758;BMP180;54562;47.620;18.786;2023-02-28T12:59:40;99437.60;;;9.50
67758;BMP180;54562;47.620;18.786;2023-02-28T13:03:29;99429.60;;;9.20
67758;BMP180;54562;47.620;18.786;2023-02-28T13:06:59;99437.00;;;
67758;BMP180;54562;47.620;18.786;2023-02-28T13:10:14;99429.60;;;9.10
67758;BMP180;54562;47.620;18.786;2023-02-28T13:13:27;99422.40;;;9.20
67758;BMP180;54562;47.620;18.786;2023-02-28T13:17:01;99421.00;;;9.40
67758;BMP180;54562;47.620;18.786;2023-02-28T13:20:20;99419.60;;;9.72
67758;BMP180;54562;47.620;18.786;2023-02-28T13:24:03;99415.20;;;10.00
67758;BMP180;54562;47.620;18.786;2023-02-28T13:27:37;99420.20;;;9.96
67758;BMP180;54562;47.620;18.786;2023-02-28T13:31:07;99421.40;;;9.70
67758;BMP180;54562;47.620;18.786;2023-02-28T13:34:19;99419.40;;;9.20
67758;BMP180;54562;47.620;18.786;2023-02-28T13:37:43;99418.20;;;9.00
67758;BMP180;54562;47.620;18.786;2023-02-28T13:40:52;99422.00;;;8.90
67758;BMP180;54562;47.620;18.786;2023-02-28T13:44:06;99421.60;;;8.80
67758;BMP180;54562;47.620;18.786;2023-02-28T13:47:30;99419.40;;;8.80
67758;BMP180;54562;47.620;18.786;2023-02-28T13:50:40;99418.00;;;8.90
67758;BMP180;54562;47.620;18.786;2023-02-28T13:54:05;99415.40;;;9.02
67758;BMP180;54562;47.620;18.786;2023-02-28T13:57:38;99410.40;;;9.10
67758;BMP180;54562;47.620;18.786;2023-02-28T14:01:07;99411.00;;;9.10
67758;BMP180;54562;47.620;18.786;2023-02-28T14:05:04;99409.00;;;9.00
67758;BMP180;54562;47.620;18.786;2023-02-28T14:08:18;99409.80;;;8.90
67758;BMP180;54562;47.620;18.786;2023-02-28T14:11:32;99404.40;;;9.00
67758;BMP180;54562;47.620;18.786;2023-02-28T14:14:59;99408.20;;;9.10
67758;BMP180;54562;47.620;18.786;2023-02-28T14:18:19;99403.00;;;9.10
67758;BMP180;54562;47.620;18.786;2023-02-28T14:21:34;99407.40;;;8.90
67758;BMP180;54562;47.620;18.786;2023-02-28T14:25:05;99398.00;;;8.80
67758;BMP180;54562;47.620;18.786;2023-02-28T14:28:31;99396.40;;;8.70
67758;BMP180;54562;47.620;18.786;2023-02-28T14:31:51;99400.20;;;8.70
67758;BMP180;54562;47.620;18.786;2023-02-28T14:35:20;99393.00;;;8.60
67758;BMP180;54562;47.620;18.786;2023-02-28T14:38:35;99394.80;;;8.50
67758;BMP180;54562;47.620;18.786;2023-02-28T14:41:46;99396.80;;;8.30
67758;BMP180;54562;47.620;18.786;2023-02-28T14:44:59;99396.40;;;8.20
67758;BMP180;54562;47.620;18.786;2023-02-28T14:48:11;99394.80;;;8.10
67758;BMP180;54562;47.620;18.786;2023-02-28T14:51:24;99396.80;;;8.00
67758;BMP180;54562;47.620;18.786;2023-02-28T14:54:33;99398.60;;;7.80
67758;BMP180;54562;47.620;18.786;2023-02-28T14:57:52;99401.60;;;7.70
67758;BMP180;54562;47.620;18.786;2023-02-28T15:01:03;99402.40;;;7.70
67758;BMP180;54562;47.620;18.786;2023-02-28T15:04:22;99402.60;;;7.66
67758;BMP180;54562;47.620;18.786;2023-02-28T15:07:33;99405.40;;;7.50
67758;BMP180;54562;47.620;18.786;2023-02-28T15:10:43;99406.60;;;7.40
67758;BMP180;54562;47.620;18.786;2023-02-28T15:13:54;99409.40;;;7.30
67758;BMP180;54562;47.620;18.786;2023-02-28T15:17:11;99405.60;;;7.20
67758;BMP180;54562;47.620;18.786;2023-02-28T15:20:21;99405.40;;;7.10
67758;BMP180;54562;47.620;18.786;2023-02-28T15:23:29;99404.40;;;6.98
67758;BMP180;54562;47.620;18.786;2023-02-28T15:26:52;99403.40;;;6.84
67758;BMP180;54562;47.620;18.786;2023-02-28T15:30:07;99413.20;;;6.80
67758;BMP180;54562;47.620;18.786;2023-02-28T15:33:25;99411.00;;;6.70
67758;BMP180;54562;47.620;18.786;2023-02-28T15:36:34;99408.20;;;6.60
67758;BMP180;54562;47.620;18.786;2023-02-28T15:39:47;99405.40;;;6.50
67758;BMP180;54562;47.620;18.786;2023-02-28T15:43:13;99404.80;;;6.44
67758;BMP180;54562;47.620;18.786;2023-02-28T15:46:22;99407.00;;;6.30
67758;BMP180;54562;47.620;18.786;2023-02-28T15:49:37;99402.00;;;6.10
67758;BMP180;54562;47.620;18.786;2023-02-28T15:52:50;99396.80;;;5.90
67758;BMP180;54562;47.620;18.786;2023-02-28T15:56:03;99401.60;;;5.80
67758;BMP180;54562;47.620;18.786;2023-02-28T15:59:19;99402.20;;;5.70
67758;BMP180;54562;47.620;18.786;2023-02-28T16:02:34;99395.00;;;5.60
67758;BMP180;54562;47.620;18.786;2023-02-28T16:05:42;99397.40;;;5.40
67758;BMP180;54562;47.620;18.786;2023-02-28T16:08:51;99401.20;;;5.30
67758;BMP180;54562;47.620;18.786;2023-02-28T16:12:04;99408.40;;;5.20
67758;BMP180;54562;47.620;18.786;2023-02-28T16:15:22;99410.40;;;5.10
67758;BMP180;54562;47.620;18.786;2023-02-28T16:18:31;99414.20;;;5.00
67758;BMP180;54562;47.620;18.786;2023-02-28T16:21:39;99408.40;;;4.90
67758;BMP180;54562;47.620;18.786;2023-02-28T16:24:47;99412.40;;;4.80
67758;BMP180;54562;47.620;18.786;2023-02-28T16:27:58;99418.80;;;4.80
67758;BMP180;54562;47.620;18.786;2023-02-28T16:31:09;99419.60;;;4.70
67758;BMP180;54562;47.620;18.786;2023-02-28T16:34:23;99422.00;;;4.60
67758;BMP180;54562;47.620;18.786;2023-02-28T16:37:32;99419.60;;;4.60
67758;BMP180;54562;47.620;18.786;2023-02-28T16:40:41;99421.40;;;4.50
67758;BMP180;54562;47.620;18.786;2023-02-28T16:43:52;99421.40;;;4.50
67758;BMP180;54562;47.620;18.786;2023-02-28T16:47:06;99423.60;;;4.48
67758;BMP180;54562;47.620;18.786;2023-02-28T16:50:19;99424.80;;;4.40
67758;BMP180;54562;47.620;18.786;2023-02-28T16:53:28;99430.20;;;4.40
67758;BMP180;54562;47.620;18.786;2023-02-28T16:56:37;99436.40;;;4.40
67758;BMP180;54562;47.620;18.786;2023-02-28T16:59:48;99440.60;;;4.40
67758;BMP180;54562;47.620;18.786;2023-02-28T17:02:58;99438.00;;;4.30
67758;BMP180;54562;47.620;18.786;2023-02-28T17:06:09;99443.20;;;4.30
67758;BMP180;54562;47.620;18.786;2023-02-28T17:09:23;99437.60;;;4.30
67758;BMP180;54562;47.620;18.786;2023-02-28T17:12:50;99439.20;;;4.30
67758;BMP180;54562;47.620;18.786;2023-02-28T17:16:16;99438.20;;;4.30
67758;BMP180;54562;47.620;18.786;2023-02-28T17:19:25;99438.80;;;4.30
67758;BMP180;54562;47.620;18.786;2023-02-28T17:22:35;99447.00;;;4.22
67758;BMP180;54562;47.620;18.786;2023-02-28T17:25:43;99447.60;;;4.20
67758;BMP180;54562;47.620;18.786;2023-02-28T17:29:05;99448.40;;;4.20
67758;BMP180;54562;47.620;18.786;2023-02-28T17:32:13;99447.60;;;4.20
67758;BMP180;54562;47.620;18.786;2023-02-28T17:35:24;99449.40;;;4.20
67758;BMP180;54562;47.620;18.786;2023-02-28T17:38:33;99453.20;;;4.20
67758;BMP180;54562;47.620;18.786;2023-02-28T17:41:42;99451.60;;;4.20
67758;BMP180;54562;47.620;18.786;2023-02-28T17:44:50;99453.60;;;4.20
67758;BMP180;54562;47.620;18.786;2023-02-28T17:47:59;99455.20;;;4.10
67758;BMP180;54562;47.620;18.786;2023-02-28T17:51:08;99461.40;;;4.10
67758;BMP180;54562;47.620;18.786;2023-02-28T17:54:16;99460.20;;;4.10
67758;BMP180;54562;47.620;18.786;2023-02-28T17:57:24;99459.60;;;4.10
67758;BMP180;54562;47.620;18.786;2023-02-28T18:00:33;99457.00;;;4.10
67758;BMP180;54562;47.620;18.786;2023-02-28T18:03:41;99457.60;;;4.02
67758;BMP180;54562;47.620;18.786;2023-02-28T18:06:49;99466.40;;;4.00
67758;BMP180;54562;47.620;18.786;2023-02-28T18:09:58;99461.80;;;4.00
67758;BMP180;54562;47.620;18.786;2023-02-28T18:13:06;99459.00;;;3.92
67758;BMP180;54562;47.620;18.786;2023-02-28T18:16:15;99467.20;;;3.90
67758;BMP180;54562;47.620;18.786;2023-02-28T18:19:24;99466.20;;;3.90
67758;BMP180;54562;47.620;18.786;2023-02-28T18:22:33;99466.00;;;3.80
67758;BMP180;54562;47.620;18.786;2023-02-28T18:25:43;99468.00;;;3.80
67758;BMP180;54562;47.620;18.786;2023-02-28T18:28:51;99468.40;;;3.80
67758;BMP180;54562;47.620;18.786;2023-02-28T18:32:00;99471.40;;;3.80